PWSweather.com
Personal Weather Stations
Station Observations
KILMORRI1
Goose Lake, Morris, IL 60450

Goose LakeMorris, IL 60450

Lat: 41.34, Lon: -88.3

Elevation: 523

Station Type:

www.gooselakeweather.com

High Low Average
Temperature 47.6°F8.7°C 38.6°F3.7°C 42.8°F6.0°C
Dew Point 44.2°F6.8°C 36.8°F2.7°C 40.2°F4.6°C
Winds 8.1 mph 13.0 kmh Calm Calm 5.0 mph S8.0 kmh S
Wind Gusts 18.4 mph29.6 kmh -- 8.0 mph12.9 kmh
Humidity 93% 86% 90%
Pressure 29.93 in1013.5 mb 29.76 in1007.8 mb -
Precipitation 0.01 in0.3 mm - -
Hour Temp Dew Point Humidity Winds Wind Gusts Pressure Precip Precip Rate Daily Precip Total
12:00 AM 38.6°F3.7°C 36.8°F2.7°C 93% 4.6 mph S7.4 kmh S 6.9 mph11.1 kmh 29.93 in1013.5 mb - 0.00 in0.0 mm 0.00 in0.0 mm
12:10 AM 38.8°F3.8°C 36.9°F2.7°C 93% 6.9 mph S11.1 kmh S 11.5 mph18.5 kmh 29.92 in1013.2 mb - 0.00 in0.0 mm 0.00 in0.0 mm
12:20 AM 38.8°F3.8°C 36.9°F2.7°C 93% 4.6 mph S7.4 kmh S 8.1 mph13.0 kmh 29.91 in1012.9 mb - 0.00 in0.0 mm 0.00 in0.0 mm
12:30 AM 39.1°F3.9°C 37.2°F2.9°C 93% 5.8 mph S9.3 kmh S 6.9 mph11.1 kmh 29.91 in1012.9 mb - 0.00 in0.0 mm 0.00 in0.0 mm
12:40 AM 39.1°F3.9°C 37.3°F2.9°C 93% 6.9 mph S11.1 kmh S 12.7 mph20.4 kmh 29.91 in1012.9 mb - 0.00 in0.0 mm 0.00 in0.0 mm
12:50 AM 39.3°F4.1°C 37.4°F3.0°C 93% 6.9 mph S11.1 kmh S 11.5 mph18.5 kmh 29.91 in1012.9 mb - 0.00 in0.0 mm 0.00 in0.0 mm
01:00 AM 39.3°F4.1°C 37.4°F3.0°C 93% 5.8 mph S9.3 kmh S 6.9 mph11.1 kmh 29.91 in1012.9 mb - 0.00 in0.0 mm 0.00 in0.0 mm
01:10 AM 39.1°F3.9°C 37.2°F2.9°C 93% 5.8 mph SSW9.3 kmh SSW 10.4 mph16.7 kmh 29.91 in1012.9 mb - 0.00 in0.0 mm 0.00 in0.0 mm
01:20 AM 39.0°F3.9°C 37.1°F2.8°C 93% 6.9 mph SSW11.1 kmh SSW 9.2 mph14.8 kmh 29.91 in1012.9 mb - 0.00 in0.0 mm 0.00 in0.0 mm
01:30 AM 38.9°F3.8°C 37.1°F2.8°C 93% 6.9 mph S11.1 kmh S 8.1 mph13.0 kmh 29.91 in1012.9 mb - 0.00 in0.0 mm 0.00 in0.0 mm
01:40 AM 39.0°F3.9°C 37.1°F2.8°C 93% 5.8 mph S9.3 kmh S 9.2 mph14.8 kmh 29.91 in1012.9 mb - 0.00 in0.0 mm 0.00 in0.0 mm
01:50 AM 39.0°F3.9°C 37.1°F2.8°C 93% 4.6 mph S7.4 kmh S 8.1 mph13.0 kmh 29.91 in1012.9 mb - 0.00 in0.0 mm 0.00 in0.0 mm
02:00 AM 38.9°F3.8°C 37.1°F2.8°C 93% 4.6 mph S7.4 kmh S 11.5 mph18.5 kmh 29.91 in1012.9 mb - 0.00 in0.0 mm 0.00 in0.0 mm
02:10 AM 38.9°F3.8°C 37.0°F2.8°C 93% 4.6 mph S7.4 kmh S 10.4 mph16.7 kmh 29.91 in1012.9 mb - 0.00 in0.0 mm 0.00 in0.0 mm
02:20 AM 38.8°F3.8°C 37.0°F2.8°C 93% 5.8 mph S9.3 kmh S 10.4 mph16.7 kmh 29.91 in1012.9 mb - 0.00 in0.0 mm 0.00 in0.0 mm
02:30 AM 39.0°F3.9°C 37.2°F2.9°C 93% 5.8 mph S9.3 kmh S 8.1 mph13.0 kmh 29.90 in1012.5 mb - 0.00 in0.0 mm 0.00 in0.0 mm
02:40 AM 39.1°F3.9°C 37.2°F2.9°C 93% 5.8 mph S9.3 kmh S 8.1 mph13.0 kmh 29.90 in1012.5 mb - 0.00 in0.0 mm 0.00 in0.0 mm
02:50 AM 39.0°F3.9°C 36.8°F2.7°C 92% 5.8 mph S9.3 kmh S 11.5 mph18.5 kmh 29.90 in1012.5 mb - 0.00 in0.0 mm 0.00 in0.0 mm
03:00 AM 39.0°F3.9°C 36.9°F2.7°C 92% 5.8 mph S9.3 kmh S 8.1 mph13.0 kmh 29.90 in1012.5 mb - 0.00 in0.0 mm 0.00 in0.0 mm
03:10 AM 39.0°F3.9°C 36.9°F2.7°C 92% 5.8 mph S9.3 kmh S 10.4 mph16.7 kmh 29.89 in1012.2 mb - 0.00 in0.0 mm 0.00 in0.0 mm
03:20 AM 39.3°F4.1°C 37.2°F2.9°C 92% 6.9 mph S11.1 kmh S 11.5 mph18.5 kmh 29.89 in1012.2 mb - 0.00 in0.0 mm 0.00 in0.0 mm
03:30 AM 39.4°F4.1°C 37.0°F2.8°C 91% 5.8 mph S9.3 kmh S 10.4 mph16.7 kmh 29.89 in1012.2 mb - 0.00 in0.0 mm 0.00 in0.0 mm
03:40 AM 39.4°F4.1°C 37.0°F2.8°C 91% 8.1 mph S13.0 kmh S 11.5 mph18.5 kmh 29.88 in1011.9 mb - 0.00 in0.0 mm 0.00 in0.0 mm
03:50 AM 39.5°F4.2°C 37.1°F2.8°C 91% 5.8 mph S9.3 kmh S 11.5 mph18.5 kmh 29.88 in1011.9 mb - 0.00 in0.0 mm 0.00 in0.0 mm
04:00 AM 39.7°F4.3°C 37.3°F2.9°C 91% 8.1 mph S13.0 kmh S 15.0 mph24.1 kmh 29.88 in1011.9 mb - 0.00 in0.0 mm 0.00 in0.0 mm
04:10 AM 39.9°F4.4°C 37.5°F3.1°C 91% 5.8 mph S9.3 kmh S 8.1 mph13.0 kmh 29.88 in1011.9 mb - 0.00 in0.0 mm 0.00 in0.0 mm
04:20 AM 40.1°F4.5°C 37.7°F3.2°C 91% 6.9 mph S11.1 kmh S 12.7 mph20.4 kmh 29.88 in1011.9 mb - 0.00 in0.0 mm 0.00 in0.0 mm
04:30 AM 40.2°F4.6°C 37.8°F3.2°C 91% 6.9 mph SSW11.1 kmh SSW 9.2 mph14.8 kmh 29.89 in1012.2 mb - 0.00 in0.0 mm 0.00 in0.0 mm
04:40 AM 40.0°F4.4°C 37.6°F3.1°C 91% 6.9 mph SSW11.1 kmh SSW 9.2 mph14.8 kmh 29.88 in1011.9 mb - 0.00 in0.0 mm 0.00 in0.0 mm
04:50 AM 40.1°F4.5°C 37.7°F3.2°C 91% 6.9 mph S11.1 kmh S 18.4 mph29.6 kmh 29.88 in1011.9 mb - 0.00 in0.0 mm 0.00 in0.0 mm
05:00 AM 39.9°F4.4°C 37.5°F3.1°C 91% 4.6 mph S7.4 kmh S 9.2 mph14.8 kmh 29.88 in1011.9 mb - 0.00 in0.0 mm 0.00 in0.0 mm
05:10 AM 39.9°F4.4°C 37.5°F3.1°C 91% 4.6 mph S7.4 kmh S 6.9 mph11.1 kmh 29.88 in1011.9 mb - 0.00 in0.0 mm 0.00 in0.0 mm
05:20 AM 40.1°F4.5°C 37.6°F3.1°C 91% 5.8 mph S9.3 kmh S 8.1 mph13.0 kmh 29.88 in1011.9 mb - 0.00 in0.0 mm 0.00 in0.0 mm
05:30 AM 40.2°F4.6°C 37.8°F3.2°C 91% 5.8 mph S9.3 kmh S 10.4 mph16.7 kmh 29.87 in1011.5 mb - 0.00 in0.0 mm 0.00 in0.0 mm
05:40 AM 40.5°F4.7°C 38.1°F3.4°C 91% 5.8 mph S9.3 kmh S 8.1 mph13.0 kmh 29.87 in1011.5 mb - 0.00 in0.0 mm 0.00 in0.0 mm
05:50 AM 40.7°F4.8°C 38.2°F3.4°C 91% 6.9 mph S11.1 kmh S 11.5 mph18.5 kmh 29.87 in1011.5 mb - 0.00 in0.0 mm 0.00 in0.0 mm
06:00 AM 40.6°F4.8°C 37.9°F3.3°C 90% 5.8 mph S9.3 kmh S 9.2 mph14.8 kmh 29.87 in1011.5 mb - 0.00 in0.0 mm 0.00 in0.0 mm
06:10 AM 40.8°F4.9°C 38.1°F3.4°C 90% 6.9 mph S11.1 kmh S 6.9 mph11.1 kmh 29.87 in1011.5 mb - 0.00 in0.0 mm 0.00 in0.0 mm
06:20 AM 40.9°F4.9°C 38.2°F3.4°C 90% 6.9 mph S11.1 kmh S 11.5 mph18.5 kmh 29.87 in1011.5 mb - 0.00 in0.0 mm 0.00 in0.0 mm
06:30 AM 41.0°F5.0°C 38.3°F3.5°C 90% 6.9 mph S11.1 kmh S 10.4 mph16.7 kmh 29.87 in1011.5 mb - 0.00 in0.0 mm 0.00 in0.0 mm
06:40 AM 41.2°F5.1°C 38.5°F3.6°C 90% 6.9 mph S11.1 kmh S 10.4 mph16.7 kmh 29.87 in1011.5 mb - 0.00 in0.0 mm 0.00 in0.0 mm
06:50 AM 41.3°F5.2°C 38.6°F3.7°C 90% 5.8 mph SSW9.3 kmh SSW 10.4 mph16.7 kmh 29.88 in1011.9 mb - 0.00 in0.0 mm 0.00 in0.0 mm
07:00 AM 41.3°F5.2°C 38.6°F3.7°C 90% 5.8 mph S9.3 kmh S 5.8 mph9.3 kmh 29.88 in1011.9 mb - 0.00 in0.0 mm 0.00 in0.0 mm
07:10 AM 41.6°F5.3°C 38.9°F3.8°C 90% 5.8 mph SSW9.3 kmh SSW 6.9 mph11.1 kmh 29.88 in1011.9 mb - 0.00 in0.0 mm 0.00 in0.0 mm
07:20 AM 41.5°F5.3°C 38.8°F3.8°C 90% 4.6 mph SSW7.4 kmh SSW 9.2 mph14.8 kmh 29.89 in1012.2 mb - 0.00 in0.0 mm 0.00 in0.0 mm
07:30 AM 41.6°F5.3°C 38.9°F3.8°C 90% 6.9 mph S11.1 kmh S 9.2 mph14.8 kmh 29.89 in1012.2 mb - 0.00 in0.0 mm 0.00 in0.0 mm
07:40 AM 41.4°F5.2°C 38.7°F3.7°C 90% 4.6 mph SSW7.4 kmh SSW 8.1 mph13.0 kmh 29.89 in1012.2 mb - 0.00 in0.0 mm 0.00 in0.0 mm
07:50 AM 41.1°F5.1°C 38.1°F3.4°C 89% 4.6 mph SSW7.4 kmh SSW 6.9 mph11.1 kmh 29.89 in1012.2 mb - 0.00 in0.0 mm 0.00 in0.0 mm
08:00 AM 41.3°F5.2°C 38.6°F3.7°C 90% 4.6 mph S7.4 kmh S 9.2 mph14.8 kmh 29.89 in1012.2 mb - 0.00 in0.0 mm 0.00 in0.0 mm
08:10 AM 41.1°F5.1°C 38.4°F3.6°C 90% 3.5 mph SSW5.6 kmh SSW 5.8 mph9.3 kmh 29.89 in1012.2 mb - 0.00 in0.0 mm 0.00 in0.0 mm
08:20 AM 41.3°F5.2°C 38.6°F3.7°C 90% 4.6 mph S7.4 kmh S 5.8 mph9.3 kmh 29.89 in1012.2 mb - 0.00 in0.0 mm 0.00 in0.0 mm
08:30 AM 40.9°F4.9°C 37.9°F3.3°C 89% 3.5 mph SSW5.6 kmh SSW 5.8 mph9.3 kmh 29.89 in1012.2 mb - 0.00 in0.0 mm 0.00 in0.0 mm
08:40 AM 40.6°F4.8°C 37.9°F3.3°C 90% 3.5 mph S5.6 kmh S 4.6 mph7.4 kmh 29.89 in1012.2 mb - 0.00 in0.0 mm 0.00 in0.0 mm
08:50 AM 40.6°F4.8°C 37.9°F3.3°C 90% 3.5 mph S5.6 kmh S 4.6 mph7.4 kmh 29.89 in1012.2 mb - 0.00 in0.0 mm 0.00 in0.0 mm
09:00 AM 41.3°F5.2°C 38.5°F3.6°C 90% 4.6 mph S7.4 kmh S 8.1 mph13.0 kmh 29.89 in1012.2 mb - 0.00 in0.0 mm 0.00 in0.0 mm
09:10 AM 42.0°F5.6°C 39.3°F4.1°C 90% 5.8 mph S9.3 kmh S 6.9 mph11.1 kmh 29.89 in1012.2 mb - 0.00 in0.0 mm 0.00 in0.0 mm
09:20 AM 42.3°F5.7°C 39.3°F4.1°C 89% 5.8 mph S9.3 kmh S 6.9 mph11.1 kmh 29.89 in1012.2 mb - 0.00 in0.0 mm 0.00 in0.0 mm
09:30 AM 42.4°F5.8°C 39.4°F4.1°C 89% 4.6 mph S7.4 kmh S 5.8 mph9.3 kmh 29.89 in1012.2 mb - 0.00 in0.0 mm 0.00 in0.0 mm
09:40 AM 42.4°F5.8°C 39.4°F4.1°C 89% 3.5 mph S5.6 kmh S 5.8 mph9.3 kmh 29.88 in1011.9 mb - 0.00 in0.0 mm 0.00 in0.0 mm
09:50 AM 42.7°F5.9°C 39.4°F4.1°C 88% 4.6 mph SSW7.4 kmh SSW 8.1 mph13.0 kmh 29.89 in1012.2 mb - 0.00 in0.0 mm 0.00 in0.0 mm
10:00 AM 42.8°F6.0°C 39.7°F4.3°C 89% 3.5 mph SSW5.6 kmh SSW 4.6 mph7.4 kmh 29.89 in1012.2 mb - 0.00 in0.0 mm 0.00 in0.0 mm
10:10 AM 43.2°F6.2°C 39.9°F4.4°C 88% 4.6 mph SSW7.4 kmh SSW 6.9 mph11.1 kmh 29.89 in1012.2 mb - 0.00 in0.0 mm 0.00 in0.0 mm
10:20 AM 43.2°F6.2°C 39.9°F4.4°C 88% 5.8 mph S9.3 kmh S 9.2 mph14.8 kmh 29.89 in1012.2 mb - 0.00 in0.0 mm 0.00 in0.0 mm
10:30 AM 42.6°F5.9°C 39.3°F4.1°C 88% 3.5 mph S5.6 kmh S 5.8 mph9.3 kmh 29.89 in1012.2 mb - 0.00 in0.0 mm 0.00 in0.0 mm
10:40 AM 42.7°F5.9°C 39.7°F4.3°C 89% 4.6 mph SSW7.4 kmh SSW 6.9 mph11.1 kmh 29.89 in1012.2 mb - 0.01 in0.3 mm 0.01 in0.3 mm
10:50 AM 42.7°F5.9°C 39.4°F4.1°C 88% 4.6 mph S7.4 kmh S 8.1 mph13.0 kmh 29.89 in1012.2 mb - 0.00 in0.0 mm 0.01 in0.3 mm
11:00 AM 42.4°F5.8°C 39.1°F3.9°C 88% 5.8 mph SSW9.3 kmh SSW 8.1 mph13.0 kmh 29.89 in1012.2 mb - 0.00 in0.0 mm 0.01 in0.3 mm
11:10 AM 42.3°F5.7°C 39.3°F4.1°C 89% 5.8 mph SSW9.3 kmh SSW 6.9 mph11.1 kmh 29.89 in1012.2 mb - 0.00 in0.0 mm 0.01 in0.3 mm
11:20 AM 42.3°F5.7°C 39.3°F4.1°C 89% 4.6 mph S7.4 kmh S 6.9 mph11.1 kmh 29.88 in1011.9 mb - 0.00 in0.0 mm 0.01 in0.3 mm
11:30 AM 42.4°F5.8°C 39.4°F4.1°C 89% 6.9 mph S11.1 kmh S 13.8 mph22.2 kmh 29.88 in1011.9 mb - 0.00 in0.0 mm 0.01 in0.3 mm
11:40 AM 42.5°F5.8°C 39.5°F4.2°C 89% 5.8 mph S9.3 kmh S 11.5 mph18.5 kmh 29.87 in1011.5 mb - 0.00 in0.0 mm 0.01 in0.3 mm
11:50 AM 42.7°F5.9°C 39.7°F4.3°C 89% 4.6 mph S7.4 kmh S 11.5 mph18.5 kmh 29.87 in1011.5 mb - 0.00 in0.0 mm 0.01 in0.3 mm
12:00 PM 42.7°F5.9°C 39.7°F4.3°C 89% 5.8 mph S9.3 kmh S 9.2 mph14.8 kmh 29.86 in1011.2 mb - 0.00 in0.0 mm 0.01 in0.3 mm
12:10 PM 42.7°F5.9°C 39.6°F4.2°C 89% 8.1 mph S13.0 kmh S 10.4 mph16.7 kmh 29.86 in1011.2 mb - 0.00 in0.0 mm 0.01 in0.3 mm
12:20 PM 42.6°F5.9°C 39.6°F4.2°C 89% 5.8 mph SSW9.3 kmh SSW 9.2 mph14.8 kmh 29.85 in1010.8 mb - 0.00 in0.0 mm 0.01 in0.3 mm
12:30 PM 43.0°F6.1°C 40.0°F4.4°C 89% 5.8 mph S9.3 kmh S 8.1 mph13.0 kmh 29.85 in1010.8 mb - 0.00 in0.0 mm 0.01 in0.3 mm
12:40 PM 42.9°F6.1°C 39.6°F4.2°C 88% 5.8 mph S9.3 kmh S 10.4 mph16.7 kmh 29.85 in1010.8 mb - 0.00 in0.0 mm 0.01 in0.3 mm
12:50 PM 43.1°F6.2°C 40.1°F4.5°C 89% 6.9 mph SSW11.1 kmh SSW 11.5 mph18.5 kmh 29.84 in1010.5 mb - 0.00 in0.0 mm 0.01 in0.3 mm
01:00 PM 43.3°F6.3°C 40.3°F4.6°C 89% 6.9 mph SSW11.1 kmh SSW 11.5 mph18.5 kmh 29.84 in1010.5 mb - 0.00 in0.0 mm 0.01 in0.3 mm
01:10 PM 43.7°F6.5°C 40.7°F4.8°C 89% 5.8 mph S9.3 kmh S 8.1 mph13.0 kmh 29.84 in1010.5 mb - 0.00 in0.0 mm 0.01 in0.3 mm
01:20 PM 43.7°F6.5°C 40.7°F4.8°C 89% 4.6 mph SSW7.4 kmh SSW 6.9 mph11.1 kmh 29.84 in1010.5 mb - 0.00 in0.0 mm 0.01 in0.3 mm
01:30 PM 43.8°F6.6°C 40.5°F4.7°C 88% 5.8 mph SSW9.3 kmh SSW 8.1 mph13.0 kmh 29.83 in1010.2 mb - 0.00 in0.0 mm 0.01 in0.3 mm
01:40 PM 44.0°F6.7°C 40.7°F4.8°C 88% 4.6 mph S7.4 kmh S 9.2 mph14.8 kmh 29.83 in1010.2 mb - 0.00 in0.0 mm 0.01 in0.3 mm
01:50 PM 44.2°F6.8°C 41.2°F5.1°C 89% 6.9 mph S11.1 kmh S 9.2 mph14.8 kmh 29.82 in1009.8 mb - 0.00 in0.0 mm 0.01 in0.3 mm
02:00 PM 44.5°F6.9°C 41.2°F5.1°C 88% 4.6 mph S7.4 kmh S 5.8 mph9.3 kmh 29.82 in1009.8 mb - 0.00 in0.0 mm 0.01 in0.3 mm
02:10 PM 44.7°F7.1°C 41.7°F5.4°C 89% 6.9 mph S11.1 kmh S 10.4 mph16.7 kmh 29.82 in1009.8 mb - 0.00 in0.0 mm 0.01 in0.3 mm
02:20 PM 44.7°F7.1°C 41.6°F5.3°C 89% 8.1 mph S13.0 kmh S 11.5 mph18.5 kmh 29.82 in1009.8 mb - 0.00 in0.0 mm 0.01 in0.3 mm
02:30 PM 44.5°F6.9°C 41.5°F5.3°C 89% 6.9 mph SSW11.1 kmh SSW 11.5 mph18.5 kmh 29.82 in1009.8 mb - 0.00 in0.0 mm 0.01 in0.3 mm
02:40 PM 44.5°F6.9°C 41.5°F5.3°C 89% 4.6 mph S7.4 kmh S 6.9 mph11.1 kmh 29.82 in1009.8 mb - 0.00 in0.0 mm 0.01 in0.3 mm
02:50 PM 44.7°F7.1°C 42.0°F5.6°C 90% 4.6 mph S7.4 kmh S 5.8 mph9.3 kmh 29.82 in1009.8 mb - 0.00 in0.0 mm 0.01 in0.3 mm
03:00 PM 44.9°F7.2°C 42.1°F5.6°C 90% 3.5 mph S5.6 kmh S 6.9 mph11.1 kmh 29.82 in1009.8 mb - 0.00 in0.0 mm 0.01 in0.3 mm
03:10 PM 45.1°F7.3°C 42.3°F5.7°C 90% 5.8 mph S9.3 kmh S 6.9 mph11.1 kmh 29.82 in1009.8 mb - 0.00 in0.0 mm 0.01 in0.3 mm
03:20 PM 45.3°F7.4°C 42.5°F5.8°C 90% 5.8 mph S9.3 kmh S 8.1 mph13.0 kmh 29.82 in1009.8 mb - 0.00 in0.0 mm 0.01 in0.3 mm
03:30 PM 45.6°F7.6°C 42.5°F5.8°C 89% 5.8 mph S9.3 kmh S 12.7 mph20.4 kmh 29.81 in1009.5 mb - 0.00 in0.0 mm 0.01 in0.3 mm
03:40 PM 45.6°F7.6°C 42.5°F5.8°C 89% 5.8 mph S9.3 kmh S 8.1 mph13.0 kmh 29.82 in1009.8 mb - 0.00 in0.0 mm 0.01 in0.3 mm
03:50 PM 45.5°F7.5°C 42.4°F5.8°C 89% 4.6 mph S7.4 kmh S 4.6 mph7.4 kmh 29.81 in1009.5 mb - 0.00 in0.0 mm 0.01 in0.3 mm
04:00 PM 45.5°F7.5°C 42.5°F5.8°C 89% 5.8 mph S9.3 kmh S 8.1 mph13.0 kmh 29.82 in1009.8 mb - 0.00 in0.0 mm 0.01 in0.3 mm
04:10 PM 45.3°F7.4°C 42.5°F5.8°C 90% 3.5 mph S5.6 kmh S 4.6 mph7.4 kmh 29.81 in1009.5 mb - 0.00 in0.0 mm 0.01 in0.3 mm
04:20 PM 45.3°F7.4°C 42.5°F5.8°C 90% 4.6 mph S7.4 kmh S 8.1 mph13.0 kmh 29.81 in1009.5 mb - 0.00 in0.0 mm 0.01 in0.3 mm
04:30 PM 45.3°F7.4°C 42.5°F5.8°C 90% 3.5 mph S5.6 kmh S 5.8 mph9.3 kmh 29.81 in1009.5 mb - 0.00 in0.0 mm 0.01 in0.3 mm
04:40 PM 45.2°F7.3°C 42.4°F5.8°C 90% 2.3 mph S3.7 kmh S 4.6 mph7.4 kmh 29.82 in1009.8 mb - 0.00 in0.0 mm 0.01 in0.3 mm
04:50 PM 45.2°F7.3°C 42.7°F5.9°C 91% 2.3 mph S3.7 kmh S 3.5 mph5.6 kmh 29.82 in1009.8 mb - 0.00 in0.0 mm 0.01 in0.3 mm
05:00 PM 45.0°F7.2°C 42.5°F5.8°C 91% 1.2 mph SW1.9 kmh SW 2.3 mph3.7 kmh 29.82 in1009.8 mb - 0.00 in0.0 mm 0.01 in0.3 mm
05:10 PM 45.0°F7.2°C 42.5°F5.8°C 91% 1.2 mph SSW1.9 kmh SSW 2.3 mph3.7 kmh 29.83 in1010.2 mb - 0.00 in0.0 mm 0.01 in0.3 mm
05:20 PM 44.5°F6.9°C 42.0°F5.6°C 91% 1.2 mph SW1.9 kmh SW 3.5 mph5.6 kmh 29.83 in1010.2 mb - 0.00 in0.0 mm 0.01 in0.3 mm
05:30 PM 44.5°F6.9°C 42.0°F5.6°C 91% Calm Calm -- 29.83 in1010.2 mb - 0.00 in0.0 mm 0.01 in0.3 mm
05:40 PM 43.4°F6.3°C 41.2°F5.1°C 92% Calm Calm 1.2 mph1.9 kmh 29.83 in1010.2 mb - 0.00 in0.0 mm 0.01 in0.3 mm
05:50 PM 43.5°F6.4°C 41.3°F5.2°C 92% 1.2 mph S1.9 kmh S 1.2 mph1.9 kmh 29.83 in1010.2 mb - 0.00 in0.0 mm 0.01 in0.3 mm
06:00 PM 44.5°F6.9°C 42.3°F5.7°C 92% 2.3 mph S3.7 kmh S 3.5 mph5.6 kmh 29.84 in1010.5 mb - 0.00 in0.0 mm 0.01 in0.3 mm
06:10 PM 44.5°F6.9°C 42.4°F5.8°C 92% 3.5 mph S5.6 kmh S 5.8 mph9.3 kmh 29.84 in1010.5 mb - 0.00 in0.0 mm 0.01 in0.3 mm
06:20 PM 44.7°F7.1°C 42.5°F5.8°C 92% 2.3 mph S3.7 kmh S 4.6 mph7.4 kmh 29.83 in1010.2 mb - 0.00 in0.0 mm 0.01 in0.3 mm
06:30 PM 44.9°F7.2°C 42.7°F5.9°C 92% 3.5 mph SSE5.6 kmh SSE 8.1 mph13.0 kmh 29.84 in1010.5 mb - 0.00 in0.0 mm 0.01 in0.3 mm
06:40 PM 45.1°F7.3°C 43.2°F6.2°C 93% 4.6 mph S7.4 kmh S 8.1 mph13.0 kmh 29.83 in1010.2 mb - 0.00 in0.0 mm 0.01 in0.3 mm
06:50 PM 45.1°F7.3°C 42.9°F6.1°C 92% 4.6 mph S7.4 kmh S 4.6 mph7.4 kmh 29.84 in1010.5 mb - 0.00 in0.0 mm 0.01 in0.3 mm
07:00 PM 45.0°F7.2°C 42.8°F6.0°C 92% 2.3 mph S3.7 kmh S 4.6 mph7.4 kmh 29.84 in1010.5 mb - 0.00 in0.0 mm 0.01 in0.3 mm
07:10 PM 45.1°F7.3°C 43.2°F6.2°C 93% 3.5 mph S5.6 kmh S 4.6 mph7.4 kmh 29.84 in1010.5 mb - 0.00 in0.0 mm 0.01 in0.3 mm
07:20 PM 45.3°F7.4°C 43.4°F6.3°C 93% 4.6 mph S7.4 kmh S 8.1 mph13.0 kmh 29.84 in1010.5 mb - 0.00 in0.0 mm 0.01 in0.3 mm
07:30 PM 45.3°F7.4°C 43.1°F6.2°C 92% 4.6 mph S7.4 kmh S 6.9 mph11.1 kmh 29.83 in1010.2 mb - 0.00 in0.0 mm 0.01 in0.3 mm
07:40 PM 45.6°F7.6°C 43.7°F6.5°C 93% 3.5 mph S5.6 kmh S 3.5 mph5.6 kmh 29.83 in1010.2 mb - 0.00 in0.0 mm 0.01 in0.3 mm
07:50 PM 45.8°F7.7°C 43.6°F6.4°C 92% 4.6 mph S7.4 kmh S 6.9 mph11.1 kmh 29.83 in1010.2 mb - 0.00 in0.0 mm 0.01 in0.3 mm
08:00 PM 45.8°F7.7°C 43.6°F6.4°C 92% 2.3 mph S3.7 kmh S 3.5 mph5.6 kmh 29.83 in1010.2 mb - 0.00 in0.0 mm 0.01 in0.3 mm
08:10 PM 46.0°F7.8°C 43.8°F6.6°C 92% 3.5 mph S5.6 kmh S 3.5 mph5.6 kmh 29.82 in1009.8 mb - 0.00 in0.0 mm 0.01 in0.3 mm
08:20 PM 45.5°F7.5°C 43.4°F6.3°C 92% 3.5 mph S5.6 kmh S 9.2 mph14.8 kmh 29.82 in1009.8 mb - 0.00 in0.0 mm 0.01 in0.3 mm
08:30 PM 45.8°F7.7°C 43.6°F6.4°C 92% 2.3 mph S3.7 kmh S 5.8 mph9.3 kmh 29.81 in1009.5 mb - 0.00 in0.0 mm 0.01 in0.3 mm
08:40 PM 46.1°F7.8°C 43.6°F6.4°C 91% 5.8 mph S9.3 kmh S 6.9 mph11.1 kmh 29.81 in1009.5 mb - 0.00 in0.0 mm 0.01 in0.3 mm
08:50 PM 46.3°F7.9°C 43.8°F6.6°C 91% 2.3 mph S3.7 kmh S 3.5 mph5.6 kmh 29.82 in1009.8 mb - 0.00 in0.0 mm 0.01 in0.3 mm
09:00 PM 46.3°F7.9°C 43.8°F6.6°C 91% 2.3 mph S3.7 kmh S 3.5 mph5.6 kmh 29.81 in1009.5 mb - 0.00 in0.0 mm 0.01 in0.3 mm
09:10 PM 46.6°F8.1°C 43.8°F6.6°C 90% 1.2 mph S1.9 kmh S 2.3 mph3.7 kmh 29.81 in1009.5 mb - 0.00 in0.0 mm 0.01 in0.3 mm
09:20 PM 45.3°F7.4°C 42.5°F5.8°C 90% 1.2 mph SSE1.9 kmh SSE 2.3 mph3.7 kmh 29.81 in1009.5 mb - 0.00 in0.0 mm 0.01 in0.3 mm
09:30 PM 44.9°F7.2°C 42.2°F5.7°C 90% 1.2 mph SSE1.9 kmh SSE 2.3 mph3.7 kmh 29.80 in1009.1 mb - 0.00 in0.0 mm 0.01 in0.3 mm
09:40 PM 45.3°F7.4°C 42.8°F6.0°C 91% 2.3 mph SSE3.7 kmh SSE 3.5 mph5.6 kmh 29.80 in1009.1 mb - 0.00 in0.0 mm 0.01 in0.3 mm
09:50 PM 46.5°F8.1°C 44.0°F6.7°C 91% 2.3 mph S3.7 kmh S 3.5 mph5.6 kmh 29.80 in1009.1 mb - 0.00 in0.0 mm 0.01 in0.3 mm
10:00 PM 46.7°F8.2°C 43.9°F6.6°C 90% 1.2 mph SE1.9 kmh SE 3.5 mph5.6 kmh 29.80 in1009.1 mb - 0.00 in0.0 mm 0.01 in0.3 mm
10:10 PM 45.5°F7.5°C 42.4°F5.8°C 89% 3.5 mph SE5.6 kmh SE 3.5 mph5.6 kmh 29.79 in1008.8 mb - 0.00 in0.0 mm 0.01 in0.3 mm
10:20 PM 46.9°F8.3°C 43.8°F6.6°C 89% 3.5 mph S5.6 kmh S 5.8 mph9.3 kmh 29.79 in1008.8 mb - 0.00 in0.0 mm 0.01 in0.3 mm
10:30 PM 47.6°F8.7°C 44.2°F6.8°C 88% 3.5 mph S5.6 kmh S 5.8 mph9.3 kmh 29.79 in1008.8 mb - 0.00 in0.0 mm 0.01 in0.3 mm
10:40 PM 47.5°F8.6°C 43.8°F6.6°C 87% 6.9 mph SSE11.1 kmh SSE 11.5 mph18.5 kmh 29.78 in1008.5 mb - 0.00 in0.0 mm 0.01 in0.3 mm
10:50 PM 47.4°F8.6°C 43.5°F6.4°C 86% 5.8 mph S9.3 kmh S 9.2 mph14.8 kmh 29.78 in1008.5 mb - 0.00 in0.0 mm 0.01 in0.3 mm
11:00 PM 47.0°F8.3°C 43.1°F6.2°C 86% 5.8 mph S9.3 kmh S 10.4 mph16.7 kmh 29.78 in1008.5 mb - 0.00 in0.0 mm 0.01 in0.3 mm
11:10 PM 46.7°F8.2°C 42.7°F5.9°C 86% 6.9 mph S11.1 kmh S 11.5 mph18.5 kmh 29.77 in1008.1 mb - 0.00 in0.0 mm 0.01 in0.3 mm
11:20 PM 46.2°F7.9°C 42.3°F5.7°C 86% 5.8 mph S9.3 kmh S 9.2 mph14.8 kmh 29.77 in1008.1 mb - 0.00 in0.0 mm 0.01 in0.3 mm
11:30 PM 45.8°F7.7°C 41.9°F5.5°C 86% 6.9 mph S11.1 kmh S 8.1 mph13.0 kmh 29.77 in1008.1 mb - 0.00 in0.0 mm 0.01 in0.3 mm
11:40 PM 45.4°F7.4°C 41.8°F5.4°C 87% 4.6 mph S7.4 kmh S 9.2 mph14.8 kmh 29.76 in1007.8 mb - 0.00 in0.0 mm 0.01 in0.3 mm
11:50 PM 45.4°F7.4°C 41.7°F5.4°C 87% 5.8 mph S9.3 kmh S 10.4 mph16.7 kmh 29.77 in1008.1 mb - 0.00 in0.0 mm 0.01 in0.3 mm